Leander, TX (78641)

5:06 AM CST on February 09, 2016 (GMT -0600)
Crystal Falls Mesa Oaks | | Change Station
CLOSE
Current Station
Personal Weather Station
Location: Leander, TX
Elevation: 1047 ft
Nearby Weather Stations

Elev 1047 ft 30.53 °N, 97.87 °W | Updated 15 seconds ago

Clear
Clear
40.3 °F
Feels Like 40 °F
N
0.0
Wind Variable Wind from NE
Gusts 0.0 mph

Today
High -- | Low -- °F
--% Chance of Precip.
Yesterday
High -- | Low -- °F
Precip. -- in
Pressure 30.34 in
Visibility 10.0 miles
Clouds Clear
Windchill 40 °F
Dew Point 20 °F
Humidity 43%
Rainfall 0.00 in
Snow Depth Not available.
7:17 AM 6:14 PM
New Moon, 1% visible
METAR KRYW 091055Z AUTO 27004KT 10SM CLR 06/M07 A3034 RMK AO2 T00561075
Pressure 30.34 in
Visibility 10.0 miles
Clouds Clear
Windchill 40 °F
Dew Point 20 °F
Humidity 43%
Rainfall 0.00 in
Snow Depth Not available.
7:17 AM 6:14 PM
New Moon, 1% visible
METAR KRYW 091055Z AUTO 27004KT 10SM CLR 06/M07 A3034 RMK AO2 T00561075

10-Day Weather Forecast

Almanac

Astronomy

Feb. 09, 2016 Rise Set
Actual Time
Civil Twilight
Nautical Twilight
Astronomical Twilight
Moon
Length of Visible Light
Length of Day
Tomorrow will be .
, % of the Moon is Illuminated

Today's Extremes

State Highs State Lows

Community

WunderPhotos

Upload Photos

1,891,565 photos uploaded!

WunderBlog® & News

Nearby

Air Quality

  Air Quality AQ Index Pollutant
Not available.

Snow Depth

Station Depth Elevation

Earthquake Activity

City Distance Mag. Time & Date
Minimum magnitude displayed is 2.5.

Coastal Water Temperatures

Place Temperature

Stations

Nearby Weather Stations

Station Location Temp. Windchill Dew Point Humidity Wind Precip. Elev Updated Type
                   

Watches & Warnings

There are currently no watches in effect.